createdAt,value
2022-10-03T00:01:56.411Z,99366.22
2022-10-03T00:04:41.522Z,99373.28
2022-10-03T00:07:18.518Z,99371.53
2022-10-03T00:09:56.295Z,99369.75
2022-10-03T00:12:47.250Z,99375.94
2022-10-03T00:15:54.172Z,99381.22
2022-10-03T00:18:58.909Z,99387.44
2022-10-03T00:21:34.621Z,99377.69
2022-10-03T00:24:22.213Z,99381.25
2022-10-03T00:27:08.612Z,99387.44
2022-10-03T00:29:56.159Z,99383.00
2022-10-03T00:32:36.248Z,99386.56
2022-10-03T00:35:07.047Z,99393.63
2022-10-03T00:37:38.140Z,99397.16
2022-10-03T00:40:11.823Z,99394.50
2022-10-03T00:42:50.724Z,99399.81
2022-10-03T00:45:32.812Z,99397.16
2022-10-03T00:48:17.671Z,99402.44
2022-10-03T00:51:07.657Z,99410.41
2022-10-03T00:53:56.092Z,99403.34
2022-10-03T00:57:06.236Z,99403.34
2022-10-03T00:59:57.503Z,99398.03
2022-10-03T01:02:39.251Z,99406.88
2022-10-03T01:05:36.690Z,99416.59
2022-10-03T01:08:37.800Z,99415.72
2022-10-03T01:11:25.321Z,99421.03
2022-10-03T01:14:40.953Z,99417.47
2022-10-03T01:17:34.033Z,99416.56
2022-10-03T01:20:15.326Z,99426.31
2022-10-03T01:22:53.944Z,99428.09
2022-10-03T01:25:52.769Z,99424.56
2022-10-03T01:29:06.921Z,99423.66
2022-10-03T01:31:44.043Z,99428.09
2022-10-03T01:34:25.952Z,99426.31
2022-10-03T01:37:05.598Z,99435.16
2022-10-03T01:40:01.564Z,99433.38
2022-10-03T01:42:44.849Z,99434.28
2022-10-03T01:45:29.792Z,99436.03
2022-10-03T01:48:08.221Z,99444.00
2022-10-03T01:50:44.880Z,99439.56
2022-10-03T01:53:46.663Z,99443.13
2022-10-03T01:56:13.155Z,99449.31
2022-10-03T01:58:39.555Z,99452.84
2022-10-03T02:01:34.627Z,99460.75
2022-10-03T02:04:15.292Z,99452.81
2022-10-03T02:06:59.084Z,99461.59
2022-10-03T02:09:39.473Z,99462.53
2022-10-03T02:12:11.699Z,99471.34
2022-10-03T02:14:50.107Z,99461.59
2022-10-03T02:17:52.247Z,99464.25
2022-10-03T02:20:25.570Z,99462.47
2022-10-03T02:22:57.806Z,99476.63
2022-10-03T02:25:36.108Z,99478.38
2022-10-03T02:28:21.840Z,99475.69
2022-10-03T02:31:23.583Z,99479.22
2022-10-03T02:34:15.249Z,99480.09
2022-10-03T02:36:50.435Z,99481.88
2022-10-03T02:39:44.403Z,99482.72
2022-10-03T02:42:55.372Z,99482.72
2022-10-03T02:45:54.083Z,99481.81
2022-10-03T02:48:31.682Z,99484.47
2022-10-03T02:51:04.651Z,99482.72
2022-10-03T02:53:56.464Z,99481.81
2022-10-03T02:56:58.594Z,99493.31
2022-10-03T02:59:41.755Z,99484.47
2022-10-03T03:03:05.663Z,99494.19
2022-10-03T03:05:56.941Z,99499.50
2022-10-03T03:08:41.381Z,99497.72
2022-10-03T03:11:56.387Z,99503.84
2022-10-03T03:15:01.389Z,99508.25
2022-10-03T03:17:53.680Z,99514.44
2022-10-03T03:20:23.221Z,99510.91
2022-10-03T03:23:15.936Z,99517.09
2022-10-03T03:26:01.122Z,99513.53
2022-10-03T03:28:43.378Z,99511.78
2022-10-03T03:31:16.758Z,99509.13
2022-10-03T03:34:08.447Z,99505.56
2022-10-03T03:36:41.594Z,99509.13
2022-10-03T03:39:33.216Z,99509.13
2022-10-03T03:42:12.347Z,99511.78
2022-10-03T03:45:02.399Z,99523.25
2022-10-03T03:48:02.405Z,99528.56
2022-10-03T03:50:46.285Z,99529.44
2022-10-03T03:53:31.480Z,99522.38
2022-10-03T03:56:36.966Z,99531.19
2022-10-03T03:59:20.242Z,99528.56
2022-10-03T04:02:14.968Z,99525.91
2022-10-03T04:04:56.271Z,99523.25
2022-10-03T04:08:12.015Z,99525.03
2022-10-03T04:10:47.541Z,99531.22
2022-10-03T04:13:41.998Z,99532.97
2022-10-03T04:17:05.493Z,99532.97
2022-10-03T04:19:37.714Z,99536.50
2022-10-03T04:22:19.312Z,99530.31
2022-10-03T04:25:00.042Z,99541.81
2022-10-03T04:27:35.277Z,99542.69
2022-10-03T04:30:07.973Z,99542.69
2022-10-03T04:32:46.773Z,99539.16
2022-10-03T04:35:15.963Z,99542.69
2022-10-03T04:37:58.280Z,99541.81
2022-10-03T04:40:38.757Z,99543.59
2022-10-03T04:43:35.495Z,99533.84
2022-10-03T04:46:29.873Z,99535.63
2022-10-03T04:49:18.580Z,99536.50
2022-10-03T04:52:07.106Z,99543.56
2022-10-03T04:54:33.545Z,99544.47
2022-10-03T04:57:17.572Z,99541.81
2022-10-03T04:59:51.168Z,99546.22
2022-10-03T05:02:36.504Z,99544.47
2022-10-03T05:05:25.978Z,99540.91
2022-10-03T05:08:12.753Z,99537.38
2022-10-03T05:10:39.198Z,99539.16
2022-10-03T05:13:12.693Z,99555.88
2022-10-03T05:16:07.407Z,99555.03
2022-10-03T05:18:52.373Z,99559.47
2022-10-03T05:21:37.300Z,99577.97
2022-10-03T05:24:28.676Z,99570.94
2022-10-03T05:27:07.128Z,99571.78
2022-10-03T05:29:44.082Z,99573.59
2022-10-03T05:32:30.835Z,99580.66
2022-10-03T05:35:00.218Z,99586.84
2022-10-03T05:37:47.200Z,99580.66
2022-10-03T05:40:20.776Z,99585.03
2022-10-03T05:43:19.103Z,99588.63
2022-10-03T05:45:53.975Z,99594.81
2022-10-03T05:48:40.693Z,99592.13
2022-10-03T05:51:40.081Z,99607.09
2022-10-03T05:54:21.187Z,99606.22
2022-10-03T05:57:20.661Z,99603.56
2022-10-03T06:00:07.411Z,99608.00
2022-10-03T06:03:14.939Z,99606.22
2022-10-03T06:05:52.581Z,99607.09
2022-10-03T06:08:21.738Z,99608.84
2022-10-03T06:11:25.631Z,99611.50
2022-10-03T06:14:27.409Z,99613.25
2022-10-03T06:17:21.031Z,99618.56
2022-10-03T06:20:09.353Z,99613.25
2022-10-03T06:23:05.571Z,99622.09
2022-10-03T06:26:11.133Z,99622.09
2022-10-03T06:28:47.554Z,99630.06
2022-10-03T06:31:20.175Z,99628.31
2022-10-03T06:34:13.831Z,99626.53
2022-10-03T06:37:04.724Z,99629.19
2022-10-03T06:39:34.086Z,99631.88
2022-10-03T06:42:04.482Z,99637.22
2022-10-03T06:44:46.939Z,99639.03
2022-10-03T06:47:38.675Z,99636.41
2022-10-03T06:50:40.298Z,99641.72
2022-10-03T06:53:09.665Z,99644.38
2022-10-03T06:56:14.746Z,99643.53
2022-10-03T06:58:47.172Z,99648.88
2022-10-03T07:01:13.672Z,99643.56
2022-10-03T07:04:04.731Z,99647.13
2022-10-03T07:06:59.094Z,99640.94
2022-10-03T07:09:49.919Z,99647.19
2022-10-03T07:12:37.321Z,99659.50
2022-10-03T07:16:08.393Z,99654.19
2022-10-03T07:18:49.343Z,99666.56
2022-10-03T07:21:47.051Z,99657.78
2022-10-03T07:24:40.386Z,99666.63
2022-10-03T07:27:22.065Z,99656.94
2022-10-03T07:30:16.804Z,99670.22
2022-10-03T07:32:58.324Z,99670.22
2022-10-03T07:35:59.052Z,99671.97
2022-10-03T07:38:59.220Z,99679.13
2022-10-03T07:42:00.206Z,99679.22
2022-10-03T07:45:05.297Z,99689.00
2022-10-03T07:48:13.306Z,99688.13
2022-10-03T07:50:51.824Z,99689.00
2022-10-03T07:53:36.490Z,99690.78
2022-10-03T07:56:37.005Z,99691.72
2022-10-03T07:59:04.280Z,99694.44
2022-10-03T08:01:51.819Z,99694.50
2022-10-03T08:04:27.140Z,99696.28
2022-10-03T08:07:15.342Z,99695.44
2022-10-03T08:09:58.270Z,99695.44
2022-10-03T08:12:33.699Z,99695.47
2022-10-03T08:15:10.594Z,99709.63
2022-10-03T08:17:40.058Z,99696.31
2022-10-03T08:20:25.760Z,99712.25
2022-10-03T08:23:13.906Z,99707.88
2022-10-03T08:25:55.473Z,99714.06
2022-10-03T08:28:31.426Z,99707.91
2022-10-03T08:31:33.202Z,99711.44
2022-10-03T08:34:07.933Z,99715.88
2022-10-03T08:36:55.788Z,99715.88
2022-10-03T08:39:57.142Z,99715.88
2022-10-03T08:42:47.772Z,99713.22
2022-10-03T08:45:42.201Z,99717.59
2022-10-03T08:48:53.654Z,99719.41
2022-10-03T08:52:03.770Z,99717.69
2022-10-03T08:54:37.090Z,99714.25
2022-10-03T08:57:22.261Z,99720.50
2022-10-03T09:00:04.057Z,99711.56
2022-10-03T09:03:02.136Z,99713.28
2022-10-03T09:06:12.464Z,99718.63
2022-10-03T09:08:57.243Z,99718.69
2022-10-03T09:11:44.948Z,99715.13
2022-10-03T09:14:36.906Z,99718.66
2022-10-03T09:17:35.296Z,99714.25
2022-10-03T09:20:08.158Z,99716.91
2022-10-03T09:22:56.981Z,99722.25
2022-10-03T09:26:09.044Z,99717.81
2022-10-03T09:28:59.295Z,99722.25
2022-10-03T09:32:04.863Z,99722.25
2022-10-03T09:34:37.403Z,99725.78
2022-10-03T09:37:21.938Z,99716.06
2022-10-03T09:40:17.153Z,99716.94
2022-10-03T09:42:43.839Z,99712.50
2022-10-03T09:45:22.250Z,99723.16
2022-10-03T09:48:13.060Z,99724.03
2022-10-03T09:51:01.304Z,99730.25
2022-10-03T09:53:46.613Z,99730.25
2022-10-03T09:56:53.213Z,99725.81
2022-10-03T09:59:50.504Z,99728.50
2022-10-03T10:02:20.043Z,99724.94
2022-10-03T10:04:58.421Z,99731.16
2022-10-03T10:07:24.886Z,99724.03
2022-10-03T10:10:21.527Z,99724.91
2022-10-03T10:13:12.643Z,99732.91
2022-10-03T10:16:15.175Z,99733.78
2022-10-03T10:18:50.645Z,99737.34
2022-10-03T10:21:25.813Z,99731.13
2022-10-03T10:23:55.734Z,99730.22
2022-10-03T10:26:59.871Z,99730.25
2022-10-03T10:29:32.370Z,99724.03
2022-10-03T10:32:21.740Z,99723.09
2022-10-03T10:34:54.604Z,99722.09
2022-10-03T10:37:32.995Z,99725.69
2022-10-03T10:40:18.152Z,99717.75
2022-10-03T10:43:15.651Z,99710.56
2022-10-03T10:46:04.658Z,99716.75
2022-10-03T10:49:01.402Z,99719.53
2022-10-03T10:51:54.589Z,99714.22
2022-10-03T10:54:52.005Z,99721.38
2022-10-03T10:57:29.583Z,99720.50
2022-10-03T10:59:58.666Z,99723.16
2022-10-03T11:03:13.198Z,99716.91
2022-10-03T11:05:42.705Z,99718.59
2022-10-03T11:08:34.294Z,99710.63
2022-10-03T11:11:31.637Z,99702.63
2022-10-03T11:14:07.240Z,99710.66
2022-10-03T11:16:58.366Z,99713.34
2022-10-03T11:19:43.591Z,99714.25
2022-10-03T11:22:16.378Z,99714.25
2022-10-03T11:25:04.335Z,99718.69
2022-10-03T11:28:05.790Z,99714.28
2022-10-03T11:30:53.881Z,99730.25
2022-10-03T11:34:05.509Z,99719.59
2022-10-03T11:37:00.896Z,99722.25
2022-10-03T11:39:39.366Z,99724.03
2022-10-03T11:42:41.215Z,99724.94
2022-10-03T11:45:42.949Z,99720.47
2022-10-03T11:48:19.403Z,99725.81
2022-10-03T11:50:56.349Z,99732.03
2022-10-03T11:53:45.276Z,99730.25
2022-10-03T11:56:26.667Z,99722.28
2022-10-03T11:59:24.808Z,99725.81
2022-10-03T12:02:02.049Z,99721.41
2022-10-03T12:04:50.896Z,99723.16
2022-10-03T12:08:17.766Z,99720.50
2022-10-03T12:11:13.935Z,99724.03
2022-10-03T12:14:02.060Z,99719.59
2022-10-03T12:17:05.830Z,99715.16
2022-10-03T12:20:02.547Z,99718.69
2022-10-03T12:22:52.961Z,99720.47
2022-10-03T12:25:26.774Z,99715.16
2022-10-03T12:28:24.102Z,99701.81
2022-10-03T12:30:55.623Z,99704.44
2022-10-03T12:33:28.207Z,99698.25
2022-10-03T12:36:05.119Z,99689.38
2022-10-03T12:38:54.998Z,99692.88
2022-10-03T12:41:33.670Z,99680.47
2022-10-03T12:44:29.777Z,99679.41
2022-10-03T12:47:05.234Z,99674.00
2022-10-03T12:49:49.809Z,99682.00
2022-10-03T12:52:33.623Z,99679.25
2022-10-03T12:55:13.442Z,99683.75
2022-10-03T12:57:46.347Z,99681.94
2022-10-03T13:00:24.915Z,99692.50
2022-10-03T13:03:06.853Z,99680.06
2022-10-03T13:05:37.634Z,99681.75
2022-10-03T13:08:42.712Z,99692.31
2022-10-03T13:11:24.032Z,99686.94
2022-10-03T13:14:18.983Z,99681.69
2022-10-03T13:17:11.714Z,99687.94
2022-10-03T13:19:57.471Z,99686.28
2022-10-03T13:22:29.557Z,99678.31
2022-10-03T13:25:24.261Z,99675.69
2022-10-03T13:28:31.420Z,99688.06
2022-10-03T13:31:03.287Z,99689.00
2022-10-03T13:33:37.708Z,99684.66
2022-10-03T13:36:05.485Z,99687.41
2022-10-03T13:38:38.812Z,99684.81
2022-10-03T13:41:17.549Z,99685.78
2022-10-03T13:43:57.845Z,99692.88
2022-10-03T13:46:33.905Z,99683.09
2022-10-03T13:49:11.136Z,99685.75
2022-10-03T13:51:54.350Z,99691.97
2022-10-03T13:54:49.050Z,99690.16
2022-10-03T13:57:18.811Z,99692.84
2022-10-03T14:00:15.070Z,99694.66
2022-10-03T14:02:47.932Z,99693.78
2022-10-03T14:05:53.508Z,99688.44
2022-10-03T14:08:34.141Z,99689.31
2022-10-03T14:11:14.266Z,99682.19
2022-10-03T14:14:01.286Z,99681.28
2022-10-03T14:16:27.729Z,99675.91
2022-10-03T14:19:15.806Z,99683.00
2022-10-03T14:21:58.605Z,99689.22
2022-10-03T14:24:38.421Z,99678.56
2022-10-03T14:27:36.913Z,99675.03
2022-10-03T14:30:11.208Z,99674.16
2022-10-03T14:32:53.367Z,99659.97
2022-10-03T14:35:33.397Z,99667.13
2022-10-03T14:38:19.586Z,99673.34
2022-10-03T14:41:04.071Z,99669.81
2022-10-03T14:43:48.125Z,99667.13
2022-10-03T14:46:15.877Z,99663.56
2022-10-03T14:48:49.881Z,99660.09
2022-10-03T14:51:21.415Z,99660.03
2022-10-03T14:53:56.164Z,99660.09
2022-10-03T14:56:26.537Z,99659.16
2022-10-03T14:58:58.383Z,99662.69
2022-10-03T15:01:28.451Z,99658.31
2022-10-03T15:04:21.474Z,99674.22
2022-10-03T15:06:54.344Z,99663.59
2022-10-03T15:09:25.372Z,99660.94
2022-10-03T15:12:03.074Z,99658.28
2022-10-03T15:14:32.867Z,99671.63
2022-10-03T15:17:03.635Z,99660.09
2022-10-03T15:19:35.632Z,99660.97
2022-10-03T15:22:12.597Z,99663.63
2022-10-03T15:24:41.118Z,99652.09
2022-10-03T15:27:15.489Z,99653.91
2022-10-03T15:29:42.356Z,99652.13
2022-10-03T15:32:23.506Z,99647.66
2022-10-03T15:34:54.950Z,99649.44
2022-10-03T15:37:26.328Z,99645.88
2022-10-03T15:39:54.299Z,99645.00
2022-10-03T15:42:25.597Z,99640.53
2022-10-03T15:44:56.593Z,99647.63
2022-10-03T15:47:27.206Z,99650.28
2022-10-03T15:49:59.629Z,99649.41
2022-10-03T15:52:43.402Z,99652.06
2022-10-03T15:55:21.889Z,99656.53
2022-10-03T15:57:52.986Z,99648.53
2022-10-03T16:00:21.579Z,99643.22
2022-10-03T16:02:54.179Z,99642.34
2022-10-03T16:05:25.506Z,99643.22
2022-10-03T16:07:54.707Z,99644.13
2022-10-03T16:10:27.688Z,99640.56
2022-10-03T16:13:17.835Z,99647.66
2022-10-03T16:15:52.313Z,99645.00
2022-10-03T16:18:21.818Z,99637.06
2022-10-03T16:21:01.443Z,99636.19
2022-10-03T16:23:34.440Z,99638.84
2022-10-03T16:26:05.837Z,99644.19
2022-10-03T16:28:44.998Z,99637.97
2022-10-03T16:31:29.897Z,99636.19
2022-10-03T16:34:02.835Z,99640.66
2022-10-03T16:36:33.019Z,99639.78
2022-10-03T16:39:04.664Z,99633.59
2022-10-03T16:41:34.206Z,99635.34
2022-10-03T16:44:11.077Z,99631.81
2022-10-03T16:46:40.117Z,99630.00
2022-10-03T16:49:58.201Z,99634.47
2022-10-03T16:52:33.337Z,99627.34
2022-10-03T16:55:05.104Z,99635.34
2022-10-03T16:57:41.888Z,99626.50
2022-10-03T17:00:24.267Z,99630.94
2022-10-03T17:02:51.786Z,99627.38
2022-10-03T17:05:19.872Z,99631.84
2022-10-03T17:07:53.631Z,99630.06
2022-10-03T17:10:40.502Z,99628.28
2022-10-03T17:13:18.691Z,99637.16
2022-10-03T17:15:58.293Z,99634.50
2022-10-03T17:18:35.473Z,99630.09
2022-10-03T17:21:19.956Z,99629.19
2022-10-03T17:24:06.637Z,99627.41
2022-10-03T17:26:43.739Z,99640.69
2022-10-03T17:29:23.626Z,99641.59
2022-10-03T17:32:00.401Z,99646.03
2022-10-03T17:34:37.638Z,99653.13
2022-10-03T17:37:09.857Z,99654.03
2022-10-03T17:39:45.455Z,99654.91
2022-10-03T17:42:42.454Z,99655.81
2022-10-03T17:45:18.354Z,99656.66
2022-10-03T17:48:15.632Z,99654.91
2022-10-03T17:51:18.080Z,99655.78
2022-10-03T17:53:53.168Z,99652.25
2022-10-03T17:56:24.165Z,99659.31
2022-10-03T17:58:56.019Z,99648.69
2022-10-03T18:01:42.522Z,99650.47
2022-10-03T18:04:19.692Z,99654.91
2022-10-03T18:06:52.750Z,99645.13
2022-10-03T18:09:43.509Z,99657.56
2022-10-03T18:12:33.067Z,99649.59
2022-10-03T18:15:17.840Z,99655.78
2022-10-03T18:17:47.365Z,99654.91
2022-10-03T18:20:27.348Z,99651.34
2022-10-03T18:23:04.064Z,99653.13
2022-10-03T18:26:20.098Z,99656.69
2022-10-03T18:29:11.657Z,99663.78
2022-10-03T18:31:45.972Z,99659.34
2022-10-03T18:34:35.682Z,99663.78
2022-10-03T18:37:16.650Z,99654.91
2022-10-03T18:39:44.681Z,99653.16
2022-10-03T18:42:15.153Z,99655.81
2022-10-03T18:44:45.058Z,99658.44
2022-10-03T18:47:37.924Z,99654.91
2022-10-03T18:50:31.963Z,99656.66
2022-10-03T18:53:37.260Z,99664.63
2022-10-03T18:56:11.352Z,99657.56
2022-10-03T18:58:44.993Z,99655.78
2022-10-03T19:01:24.455Z,99654.00
2022-10-03T19:04:14.828Z,99654.91
2022-10-03T19:06:44.535Z,99652.25
2022-10-03T19:09:26.967Z,99649.59
2022-10-03T19:12:05.941Z,99651.34
2022-10-03T19:14:56.921Z,99644.28
2022-10-03T19:17:33.402Z,99653.13
2022-10-03T19:20:23.601Z,99652.25
2022-10-03T19:23:14.163Z,99656.69
2022-10-03T19:25:43.657Z,99654.91
2022-10-03T19:28:37.859Z,99666.44
2022-10-03T19:31:29.976Z,99658.47
2022-10-03T19:34:02.173Z,99662.91
2022-10-03T19:36:31.554Z,99650.47
2022-10-03T19:38:59.689Z,99654.91
2022-10-03T19:41:55.328Z,99648.69
2022-10-03T19:44:33.353Z,99640.72
2022-10-03T19:47:20.357Z,99643.38
2022-10-03T19:50:21.424Z,99647.81
2022-10-03T19:52:49.400Z,99644.28
2022-10-03T19:55:24.861Z,99640.75
2022-10-03T19:57:53.670Z,99639.81
2022-10-03T20:00:37.953Z,99645.16
2022-10-03T20:03:37.610Z,99637.19
2022-10-03T20:06:04.308Z,99633.63
2022-10-03T20:08:33.403Z,99631.81
2022-10-03T20:11:05.353Z,99640.66
2022-10-03T20:13:32.016Z,99634.47
2022-10-03T20:16:02.604Z,99629.16
2022-10-03T20:18:41.942Z,99634.47
2022-10-03T20:21:15.895Z,99638.88
2022-10-03T20:23:43.518Z,99645.97
2022-10-03T20:26:25.073Z,99647.75
2022-10-03T20:28:55.746Z,99645.09
2022-10-03T20:31:27.908Z,99648.59
2022-10-03T20:33:59.180Z,99652.16
2022-10-03T20:36:32.764Z,99648.63
2022-10-03T20:39:16.187Z,99640.66
2022-10-03T20:41:49.507Z,99649.50
2022-10-03T20:44:19.545Z,99644.19
2022-10-03T20:46:50.175Z,99643.31
2022-10-03T20:49:28.045Z,99643.31
2022-10-03T20:51:54.449Z,99653.94
2022-10-03T20:54:24.248Z,99646.84
2022-10-03T20:57:31.543Z,99654.81
2022-10-03T21:00:12.935Z,99648.63
2022-10-03T21:02:47.711Z,99644.19
2022-10-03T21:05:24.945Z,99649.50
2022-10-03T21:07:59.053Z,99643.31
2022-10-03T21:10:49.861Z,99641.53
2022-10-03T21:14:07.220Z,99636.22
2022-10-03T21:16:36.556Z,99646.81
2022-10-03T21:19:19.749Z,99643.28
2022-10-03T21:21:52.595Z,99649.47
2022-10-03T21:24:24.877Z,99641.47
2022-10-03T21:27:14.406Z,99641.47
2022-10-03T21:29:54.208Z,99638.81
2022-10-03T21:32:36.386Z,99633.53
2022-10-03T21:35:14.979Z,99632.63
2022-10-03T21:37:50.244Z,99634.41
2022-10-03T21:40:29.767Z,99636.19
2022-10-03T21:43:11.657Z,99634.41
2022-10-03T21:45:47.240Z,99636.16
2022-10-03T21:48:45.395Z,99624.66
2022-10-03T21:51:28.058Z,99622.91
2022-10-03T21:54:06.648Z,99624.66
2022-10-03T21:56:53.591Z,99613.16
2022-10-03T21:59:41.751Z,99614.03
2022-10-03T22:02:10.974Z,99609.63
2022-10-03T22:04:44.227Z,99612.28
2022-10-03T22:07:16.123Z,99610.50
2022-10-03T22:09:51.182Z,99600.78
2022-10-03T22:12:18.133Z,99607.84
2022-10-03T22:15:02.822Z,99599.00
2022-10-03T22:17:39.817Z,99600.78
2022-10-03T22:20:23.583Z,99598.13
2022-10-03T22:23:34.412Z,99591.88
2022-10-03T22:26:03.855Z,99592.81
2022-10-03T22:28:44.440Z,99593.69
2022-10-03T22:31:25.894Z,99599.00
2022-10-03T22:34:04.693Z,99589.22
2022-10-03T22:36:35.890Z,99592.78
2022-10-03T22:39:09.912Z,99594.50
2022-10-03T22:41:39.270Z,99593.63
2022-10-03T22:44:12.511Z,99588.31
2022-10-03T22:46:48.746Z,99589.16
2022-10-03T22:49:25.479Z,99587.41
2022-10-03T22:51:55.521Z,99582.09
2022-10-03T22:54:23.702Z,99585.63
2022-10-03T22:56:58.478Z,99582.09
2022-10-03T22:59:35.497Z,99591.78
2022-10-03T23:02:07.434Z,99590.91
2022-10-03T23:04:54.628Z,99590.00
2022-10-03T23:07:49.507Z,99589.13
2022-10-03T23:10:27.083Z,99575.84
2022-10-03T23:13:13.157Z,99583.81
2022-10-03T23:15:42.810Z,99579.38
2022-10-03T23:18:27.946Z,99586.47
2022-10-03T23:21:05.460Z,99583.81
2022-10-03T23:23:47.099Z,99580.28
2022-10-03T23:26:54.440Z,99582.88
2022-10-03T23:29:24.087Z,99576.69
2022-10-03T23:32:05.108Z,99580.22
2022-10-03T23:34:34.527Z,99572.28
2022-10-03T23:37:20.725Z,99574.94
2022-10-03T23:39:56.035Z,99570.50
2022-10-03T23:42:31.817Z,99578.47
2022-10-03T23:45:00.781Z,99577.56
2022-10-03T23:47:35.662Z,99580.22
2022-10-03T23:50:04.739Z,99583.72
2022-10-03T23:52:46.080Z,99575.75
2022-10-03T23:55:21.464Z,99582.84
2022-10-03T23:57:51.890Z,99581.94
